Saint-Jude, Canada
Current Conditions -  °F | °C
As of 8:16 PM on Saturday 22 Nov 2014 (Local Time) from CYHU Reporting Station
Light Rain Light Rain  
Wind Chill: 26°   Ceiling: 1100
Heat Index: 32°   Visibility: 5mi
Dew Point: 30°   Wind: 7mph
Humidity: 93%   Direction: 180°S
Pressure: 29.89"   Gusts: NA
Location:  45.77°N, 72.98°W
Report Text: CYHU 230116Z AUTO 18006KT 5SM -RA UP BR OVC011 00/M01 A2989 RMK SLP123
Loading
Personal Weather Stations






























Interactive Weather Map New forecast layout! Learn more

10-Day Weather Forecast

Advertisements
Track Severe Weather on mobile